sensor_id;sensor_type;location;lat;lon;timestamp;P1;durP1;ratioP1;P2;durP2;ratioP2
52166;SDS011;38149;52.666;6.428;2023-03-01T00:02:07;0.30;;;0.30;;
52166;SDS011;38149;52.666;6.428;2023-03-01T00:04:34;0.30;;;0.30;;
52166;SDS011;38149;52.666;6.428;2023-03-01T00:07:00;0.30;;;0.30;;
52166;SDS011;38149;52.666;6.428;2023-03-01T00:09:27;0.30;;;0.30;;
52166;SDS011;38149;52.666;6.428;2023-03-01T00:11:53;0.30;;;0.30;;
52166;SDS011;38149;52.666;6.428;2023-03-01T00:14:19;0.30;;;0.30;;
52166;SDS011;38149;52.666;6.428;2023-03-01T00:16:45;0.30;;;0.30;;
52166;SDS011;38149;52.666;6.428;2023-03-01T00:19:13;0.30;;;0.30;;
52166;SDS011;38149;52.666;6.428;2023-03-01T00:21:41;0.30;;;0.30;;
52166;SDS011;38149;52.666;6.428;2023-03-01T00:24:07;0.30;;;0.30;;
52166;SDS011;38149;52.666;6.428;2023-03-01T00:26:33;0.30;;;0.30;;
52166;SDS011;38149;52.666;6.428;2023-03-01T00:29:00;0.30;;;0.30;;
52166;SDS011;38149;52.666;6.428;2023-03-01T00:31:27;0.30;;;0.30;;
52166;SDS011;38149;52.666;6.428;2023-03-01T00:33:55;0.30;;;0.30;;
52166;SDS011;38149;52.666;6.428;2023-03-01T00:36:23;0.40;;;0.40;;
52166;SDS011;38149;52.666;6.428;2023-03-01T00:38:53;0.30;;;0.30;;
52166;SDS011;38149;52.666;6.428;2023-03-01T00:41:20;0.30;;;0.30;;
52166;SDS011;38149;52.666;6.428;2023-03-01T00:43:51;0.30;;;0.30;;
52166;SDS011;38149;52.666;6.428;2023-03-01T00:46:22;0.30;;;0.30;;
52166;SDS011;38149;52.666;6.428;2023-03-01T00:48:50;0.30;;;0.30;;
52166;SDS011;38149;52.666;6.428;2023-03-01T00:51:20;0.30;;;0.30;;
52166;SDS011;38149;52.666;6.428;2023-03-01T00:53:52;0.30;;;0.30;;
52166;SDS011;38149;52.666;6.428;2023-03-01T00:56:20;0.30;;;0.30;;
52166;SDS011;38149;52.666;6.428;2023-03-01T00:58:46;0.30;;;0.30;;
52166;SDS011;38149;52.666;6.428;2023-03-01T01:01:14;0.30;;;0.30;;
52166;SDS011;38149;52.666;6.428;2023-03-01T01:06:45;0.30;;;0.30;;
52166;SDS011;38149;52.666;6.428;2023-03-01T01:09:12;0.30;;;0.30;;
52166;SDS011;38149;52.666;6.428;2023-03-01T01:11:44;0.40;;;0.40;;
52166;SDS011;38149;52.666;6.428;2023-03-01T01:14:13;0.30;;;0.30;;
52166;SDS011;38149;52.666;6.428;2023-03-01T01:16:39;0.30;;;0.30;;
52166;SDS011;38149;52.666;6.428;2023-03-01T01:19:06;0.30;;;0.30;;
52166;SDS011;38149;52.666;6.428;2023-03-01T01:21:32;0.35;;;0.35;;
52166;SDS011;38149;52.666;6.428;2023-03-01T01:23:58;0.30;;;0.30;;
52166;SDS011;38149;52.666;6.428;2023-03-01T01:26:29;0.38;;;0.38;;
52166;SDS011;38149;52.666;6.428;2023-03-01T01:28:57;0.40;;;0.40;;
52166;SDS011;38149;52.666;6.428;2023-03-01T01:31:24;0.40;;;0.40;;
52166;SDS011;38149;52.666;6.428;2023-03-01T01:33:51;0.40;;;0.40;;
52166;SDS011;38149;52.666;6.428;2023-03-01T01:36:19;0.30;;;0.30;;
52166;SDS011;38149;52.666;6.428;2023-03-01T01:38:45;0.30;;;0.30;;
52166;SDS011;38149;52.666;6.428;2023-03-01T01:41:12;0.30;;;0.30;;
52166;SDS011;38149;52.666;6.428;2023-03-01T01:43:41;0.30;;;0.30;;
52166;SDS011;38149;52.666;6.428;2023-03-01T01:48:48;0.30;;;0.30;;
52166;SDS011;38149;52.666;6.428;2023-03-01T01:51:18;0.30;;;0.30;;
52166;SDS011;38149;52.666;6.428;2023-03-01T01:53:48;0.40;;;0.40;;
52166;SDS011;38149;52.666;6.428;2023-03-01T01:56:16;0.40;;;0.40;;
52166;SDS011;38149;52.666;6.428;2023-03-01T01:58:43;0.40;;;0.40;;
52166;SDS011;38149;52.666;6.428;2023-03-01T02:01:10;0.30;;;0.30;;
52166;SDS011;38149;52.666;6.428;2023-03-01T02:03:37;0.40;;;0.40;;
52166;SDS011;38149;52.666;6.428;2023-03-01T02:06:28;0.38;;;0.38;;
52166;SDS011;38149;52.666;6.428;2023-03-01T02:08:55;0.30;;;0.30;;
52166;SDS011;38149;52.666;6.428;2023-03-01T02:11:24;0.40;;;0.40;;
52166;SDS011;38149;52.666;6.428;2023-03-01T02:13:51;0.32;;;0.32;;
52166;SDS011;38149;52.666;6.428;2023-03-01T02:16:18;0.30;;;0.30;;
52166;SDS011;38149;52.666;6.428;2023-03-01T02:18:44;0.40;;;0.40;;
52166;SDS011;38149;52.666;6.428;2023-03-01T02:23:43;0.40;;;0.40;;
52166;SDS011;38149;52.666;6.428;2023-03-01T02:26:19;0.40;;;0.40;;
52166;SDS011;38149;52.666;6.428;2023-03-01T02:29:01;0.40;;;0.40;;
52166;SDS011;38149;52.666;6.428;2023-03-01T02:31:30;0.40;;;0.40;;
52166;SDS011;38149;52.666;6.428;2023-03-01T02:34:17;0.30;;;0.30;;
52166;SDS011;38149;52.666;6.428;2023-03-01T02:39:20;0.40;;;0.40;;
52166;SDS011;38149;52.666;6.428;2023-03-01T02:41:52;0.40;;;0.40;;
52166;SDS011;38149;52.666;6.428;2023-03-01T02:44:19;0.30;;;0.30;;
52166;SDS011;38149;52.666;6.428;2023-03-01T02:46:50;0.40;;;0.40;;
52166;SDS011;38149;52.666;6.428;2023-03-01T02:49:19;0.38;;;0.38;;
52166;SDS011;38149;52.666;6.428;2023-03-01T02:57:21;0.40;;;0.40;;
52166;SDS011;38149;52.666;6.428;2023-03-01T02:59:48;0.40;;;0.40;;
52166;SDS011;38149;52.666;6.428;2023-03-01T03:02:20;0.40;;;0.40;;
52166;SDS011;38149;52.666;6.428;2023-03-01T03:05:12;0.40;;;0.40;;
52166;SDS011;38149;52.666;6.428;2023-03-01T03:07:41;0.40;;;0.40;;
52166;SDS011;38149;52.666;6.428;2023-03-01T03:10:17;0.30;;;0.30;;
52166;SDS011;38149;52.666;6.428;2023-03-01T03:12:51;0.40;;;0.40;;
52166;SDS011;38149;52.666;6.428;2023-03-01T03:15:21;0.40;;;0.40;;
52166;SDS011;38149;52.666;6.428;2023-03-01T03:17:48;0.32;;;0.32;;
52166;SDS011;38149;52.666;6.428;2023-03-01T03:20:16;0.40;;;0.40;;
52166;SDS011;38149;52.666;6.428;2023-03-01T03:22:49;0.40;;;0.40;;
52166;SDS011;38149;52.666;6.428;2023-03-01T03:25:17;0.40;;;0.40;;
52166;SDS011;38149;52.666;6.428;2023-03-01T03:27:45;0.40;;;0.40;;
52166;SDS011;38149;52.666;6.428;2023-03-01T03:30:13;0.40;;;0.40;;
52166;SDS011;38149;52.666;6.428;2023-03-01T03:32:44;0.30;;;0.30;;
52166;SDS011;38149;52.666;6.428;2023-03-01T03:35:25;0.40;;;0.40;;
52166;SDS011;38149;52.666;6.428;2023-03-01T03:37:55;0.40;;;0.40;;
52166;SDS011;38149;52.666;6.428;2023-03-01T03:40:28;0.30;;;0.30;;
52166;SDS011;38149;52.666;6.428;2023-03-01T03:42:56;0.40;;;0.40;;
52166;SDS011;38149;52.666;6.428;2023-03-01T03:45:22;0.40;;;0.40;;
52166;SDS011;38149;52.666;6.428;2023-03-01T03:47:49;0.40;;;0.40;;
52166;SDS011;38149;52.666;6.428;2023-03-01T03:50:15;0.40;;;0.40;;
52166;SDS011;38149;52.666;6.428;2023-03-01T03:52:42;0.40;;;0.40;;
52166;SDS011;38149;52.666;6.428;2023-03-01T03:55:09;0.40;;;0.40;;
52166;SDS011;38149;52.666;6.428;2023-03-01T03:57:36;0.40;;;0.40;;
52166;SDS011;38149;52.666;6.428;2023-03-01T04:00:04;0.40;;;0.40;;
52166;SDS011;38149;52.666;6.428;2023-03-01T04:02:37;0.40;;;0.40;;
52166;SDS011;38149;52.666;6.428;2023-03-01T04:05:04;0.40;;;0.40;;
52166;SDS011;38149;52.666;6.428;2023-03-01T04:07:31;0.40;;;0.40;;
52166;SDS011;38149;52.666;6.428;2023-03-01T04:09:57;0.40;;;0.40;;
52166;SDS011;38149;52.666;6.428;2023-03-01T04:12:23;0.40;;;0.40;;
52166;SDS011;38149;52.666;6.428;2023-03-01T04:14:49;0.40;;;0.40;;
52166;SDS011;38149;52.666;6.428;2023-03-01T04:17:15;0.40;;;0.40;;
52166;SDS011;38149;52.666;6.428;2023-03-01T04:19:41;0.40;;;0.40;;
52166;SDS011;38149;52.666;6.428;2023-03-01T04:22:09;0.40;;;0.40;;
52166;SDS011;38149;52.666;6.428;2023-03-01T04:24:36;0.40;;;0.40;;
52166;SDS011;38149;52.666;6.428;2023-03-01T04:27:02;0.40;;;0.40;;
52166;SDS011;38149;52.666;6.428;2023-03-01T04:29:28;0.40;;;0.40;;
52166;SDS011;38149;52.666;6.428;2023-03-01T04:31:55;0.30;;;0.30;;
52166;SDS011;38149;52.666;6.428;2023-03-01T04:34:21;0.40;;;0.40;;
52166;SDS011;38149;52.666;6.428;2023-03-01T04:36:47;0.40;;;0.40;;
52166;SDS011;38149;52.666;6.428;2023-03-01T04:39:13;0.40;;;0.40;;
52166;SDS011;38149;52.666;6.428;2023-03-01T04:41:39;0.40;;;0.40;;
52166;SDS011;38149;52.666;6.428;2023-03-01T04:44:06;0.40;;;0.40;;
52166;SDS011;38149;52.666;6.428;2023-03-01T04:46:34;0.40;;;0.40;;
52166;SDS011;38149;52.666;6.428;2023-03-01T04:49:00;0.40;;;0.40;;
52166;SDS011;38149;52.666;6.428;2023-03-01T04:51:27;0.40;;;0.40;;
52166;SDS011;38149;52.666;6.428;2023-03-01T04:53:53;0.40;;;0.40;;
52166;SDS011;38149;52.666;6.428;2023-03-01T04:56:20;0.40;;;0.40;;
52166;SDS011;38149;52.666;6.428;2023-03-01T04:58:48;0.40;;;0.40;;
52166;SDS011;38149;52.666;6.428;2023-03-01T05:01:18;0.40;;;0.40;;
52166;SDS011;38149;52.666;6.428;2023-03-01T05:03:47;0.40;;;0.40;;
52166;SDS011;38149;52.666;6.428;2023-03-01T05:06:15;0.40;;;0.40;;
52166;SDS011;38149;52.666;6.428;2023-03-01T05:08:42;0.40;;;0.40;;
52166;SDS011;38149;52.666;6.428;2023-03-01T05:11:09;0.40;;;0.40;;
52166;SDS011;38149;52.666;6.428;2023-03-01T05:13:36;0.40;;;0.40;;
52166;SDS011;38149;52.666;6.428;2023-03-01T05:16:04;0.40;;;0.40;;
52166;SDS011;38149;52.666;6.428;2023-03-01T05:18:31;0.40;;;0.40;;
52166;SDS011;38149;52.666;6.428;2023-03-01T05:21:03;0.40;;;0.40;;
52166;SDS011;38149;52.666;6.428;2023-03-01T05:23:41;0.40;;;0.40;;
52166;SDS011;38149;52.666;6.428;2023-03-01T05:26:08;0.40;;;0.40;;
52166;SDS011;38149;52.666;6.428;2023-03-01T05:28:34;0.40;;;0.40;;
52166;SDS011;38149;52.666;6.428;2023-03-01T05:31:00;0.40;;;0.40;;
52166;SDS011;38149;52.666;6.428;2023-03-01T05:33:26;0.40;;;0.40;;
52166;SDS011;38149;52.666;6.428;2023-03-01T05:35:53;0.40;;;0.40;;
52166;SDS011;38149;52.666;6.428;2023-03-01T05:38:20;0.40;;;0.40;;
52166;SDS011;38149;52.666;6.428;2023-03-01T05:40:47;0.40;;;0.40;;
52166;SDS011;38149;52.666;6.428;2023-03-01T05:43:14;0.40;;;0.40;;
52166;SDS011;38149;52.666;6.428;2023-03-01T05:45:41;0.40;;;0.40;;
52166;SDS011;38149;52.666;6.428;2023-03-01T05:48:08;0.40;;;0.40;;
52166;SDS011;38149;52.666;6.428;2023-03-01T05:50:36;0.40;;;0.40;;
52166;SDS011;38149;52.666;6.428;2023-03-01T05:53:11;0.40;;;0.40;;
52166;SDS011;38149;52.666;6.428;2023-03-01T05:58:10;0.40;;;0.40;;
52166;SDS011;38149;52.666;6.428;2023-03-01T06:00:39;0.43;;;0.43;;
52166;SDS011;38149;52.666;6.428;2023-03-01T06:03:05;0.40;;;0.40;;
52166;SDS011;38149;52.666;6.428;2023-03-01T06:05:31;0.40;;;0.40;;
52166;SDS011;38149;52.666;6.428;2023-03-01T06:07:58;0.40;;;0.40;;
52166;SDS011;38149;52.666;6.428;2023-03-01T06:10:25;0.40;;;0.40;;
52166;SDS011;38149;52.666;6.428;2023-03-01T06:12:51;0.40;;;0.40;;
52166;SDS011;38149;52.666;6.428;2023-03-01T06:15:17;0.40;;;0.40;;
52166;SDS011;38149;52.666;6.428;2023-03-01T06:17:44;0.40;;;0.40;;
52166;SDS011;38149;52.666;6.428;2023-03-01T06:20:13;0.40;;;0.40;;
52166;SDS011;38149;52.666;6.428;2023-03-01T06:22:44;0.50;;;0.50;;
52166;SDS011;38149;52.666;6.428;2023-03-01T06:25:12;0.40;;;0.40;;
52166;SDS011;38149;52.666;6.428;2023-03-01T06:27:39;0.43;;;0.43;;
52166;SDS011;38149;52.666;6.428;2023-03-01T06:30:10;0.40;;;0.40;;
52166;SDS011;38149;52.666;6.428;2023-03-01T06:32:38;0.50;;;0.50;;
52166;SDS011;38149;52.666;6.428;2023-03-01T06:35:08;0.40;;;0.40;;
52166;SDS011;38149;52.666;6.428;2023-03-01T06:37:35;0.40;;;0.40;;
52166;SDS011;38149;52.666;6.428;2023-03-01T06:40:02;0.40;;;0.40;;
52166;SDS011;38149;52.666;6.428;2023-03-01T06:42:33;0.40;;;0.40;;
52166;SDS011;38149;52.666;6.428;2023-03-01T06:45:00;0.40;;;0.40;;
52166;SDS011;38149;52.666;6.428;2023-03-01T06:47:26;0.40;;;0.40;;
52166;SDS011;38149;52.666;6.428;2023-03-01T06:49:52;0.40;;;0.40;;
52166;SDS011;38149;52.666;6.428;2023-03-01T06:52:18;0.40;;;0.40;;
52166;SDS011;38149;52.666;6.428;2023-03-01T06:54:44;0.40;;;0.40;;
52166;SDS011;38149;52.666;6.428;2023-03-01T06:57:10;0.40;;;0.40;;
52166;SDS011;38149;52.666;6.428;2023-03-01T06:59:36;0.40;;;0.40;;
52166;SDS011;38149;52.666;6.428;2023-03-01T07:02:02;0.40;;;0.40;;
52166;SDS011;38149;52.666;6.428;2023-03-01T07:04:29;0.40;;;0.40;;
52166;SDS011;38149;52.666;6.428;2023-03-01T07:06:55;0.40;;;0.40;;
52166;SDS011;38149;52.666;6.428;2023-03-01T07:09:24;0.43;;;0.43;;
52166;SDS011;38149;52.666;6.428;2023-03-01T07:11:51;0.40;;;0.40;;
52166;SDS011;38149;52.666;6.428;2023-03-01T07:14:17;0.40;;;0.40;;
52166;SDS011;38149;52.666;6.428;2023-03-01T07:16:44;0.40;;;0.40;;
52166;SDS011;38149;52.666;6.428;2023-03-01T07:19:11;0.40;;;0.40;;
52166;SDS011;38149;52.666;6.428;2023-03-01T07:21:37;0.40;;;0.40;;
52166;SDS011;38149;52.666;6.428;2023-03-01T07:24:07;0.40;;;0.40;;
52166;SDS011;38149;52.666;6.428;2023-03-01T07:26:33;0.40;;;0.40;;
52166;SDS011;38149;52.666;6.428;2023-03-01T07:28:59;0.40;;;0.40;;
52166;SDS011;38149;52.666;6.428;2023-03-01T07:31:29;0.40;;;0.40;;
52166;SDS011;38149;52.666;6.428;2023-03-01T07:33:56;0.40;;;0.40;;
52166;SDS011;38149;52.666;6.428;2023-03-01T07:36:22;0.40;;;0.40;;
52166;SDS011;38149;52.666;6.428;2023-03-01T07:38:48;0.40;;;0.40;;
52166;SDS011;38149;52.666;6.428;2023-03-01T07:41:15;0.40;;;0.40;;
52166;SDS011;38149;52.666;6.428;2023-03-01T07:43:41;0.40;;;0.40;;
52166;SDS011;38149;52.666;6.428;2023-03-01T07:46:07;0.40;;;0.40;;
52166;SDS011;38149;52.666;6.428;2023-03-01T07:48:33;0.40;;;0.40;;
52166;SDS011;38149;52.666;6.428;2023-03-01T07:51:00;0.40;;;0.40;;
52166;SDS011;38149;52.666;6.428;2023-03-01T07:53:28;0.35;;;0.35;;
52166;SDS011;38149;52.666;6.428;2023-03-01T07:56:11;0.40;;;0.40;;
52166;SDS011;38149;52.666;6.428;2023-03-01T07:58:39;0.40;;;0.40;;
52166;SDS011;38149;52.666;6.428;2023-03-01T08:01:07;0.40;;;0.40;;
52166;SDS011;38149;52.666;6.428;2023-03-01T08:03:35;0.40;;;0.40;;
52166;SDS011;38149;52.666;6.428;2023-03-01T08:06:03;0.40;;;0.40;;
52166;SDS011;38149;52.666;6.428;2023-03-01T08:08:30;0.40;;;0.40;;
52166;SDS011;38149;52.666;6.428;2023-03-01T08:10:57;0.40;;;0.40;;
52166;SDS011;38149;52.666;6.428;2023-03-01T08:13:24;0.40;;;0.40;;
52166;SDS011;38149;52.666;6.428;2023-03-01T08:15:50;0.30;;;0.30;;
52166;SDS011;38149;52.666;6.428;2023-03-01T08:18:17;0.40;;;0.40;;
52166;SDS011;38149;52.666;6.428;2023-03-01T08:20:44;0.40;;;0.40;;
52166;SDS011;38149;52.666;6.428;2023-03-01T08:23:10;0.40;;;0.40;;
52166;SDS011;38149;52.666;6.428;2023-03-01T08:25:37;0.40;;;0.40;;
52166;SDS011;38149;52.666;6.428;2023-03-01T08:28:03;0.30;;;0.30;;
52166;SDS011;38149;52.666;6.428;2023-03-01T08:30:30;0.40;;;0.40;;
52166;SDS011;38149;52.666;6.428;2023-03-01T08:32:56;0.40;;;0.40;;
52166;SDS011;38149;52.666;6.428;2023-03-01T08:35:22;0.40;;;0.40;;
52166;SDS011;38149;52.666;6.428;2023-03-01T08:37:48;0.30;;;0.30;;
52166;SDS011;38149;52.666;6.428;2023-03-01T08:40:15;0.40;;;0.40;;
52166;SDS011;38149;52.666;6.428;2023-03-01T08:42:41;0.40;;;0.40;;
52166;SDS011;38149;52.666;6.428;2023-03-01T08:45:08;0.40;;;0.40;;
52166;SDS011;38149;52.666;6.428;2023-03-01T08:47:35;0.30;;;0.30;;
52166;SDS011;38149;52.666;6.428;2023-03-01T08:50:01;0.40;;;0.40;;
52166;SDS011;38149;52.666;6.428;2023-03-01T08:52:28;0.40;;;0.40;;
52166;SDS011;38149;52.666;6.428;2023-03-01T08:54:55;0.30;;;0.30;;
52166;SDS011;38149;52.666;6.428;2023-03-01T08:57:21;0.40;;;0.40;;
52166;SDS011;38149;52.666;6.428;2023-03-01T08:59:47;0.30;;;0.30;;
52166;SDS011;38149;52.666;6.428;2023-03-01T09:02:15;0.30;;;0.30;;
52166;SDS011;38149;52.666;6.428;2023-03-01T09:04:43;0.30;;;0.30;;
52166;SDS011;38149;52.666;6.428;2023-03-01T09:07:10;0.30;;;0.30;;
52166;SDS011;38149;52.666;6.428;2023-03-01T09:09:36;0.30;;;0.30;;
52166;SDS011;38149;52.666;6.428;2023-03-01T09:12:03;0.30;;;0.30;;
52166;SDS011;38149;52.666;6.428;2023-03-01T09:14:29;0.30;;;0.30;;
52166;SDS011;38149;52.666;6.428;2023-03-01T09:16:55;0.30;;;0.30;;
52166;SDS011;38149;52.666;6.428;2023-03-01T09:19:21;0.30;;;0.30;;
52166;SDS011;38149;52.666;6.428;2023-03-01T09:21:47;0.30;;;0.30;;
52166;SDS011;38149;52.666;6.428;2023-03-01T09:24:18;0.30;;;0.30;;
52166;SDS011;38149;52.666;6.428;2023-03-01T09:26:45;0.30;;;0.30;;
52166;SDS011;38149;52.666;6.428;2023-03-01T09:29:12;0.30;;;0.30;;
52166;SDS011;38149;52.666;6.428;2023-03-01T09:31:39;0.30;;;0.30;;
52166;SDS011;38149;52.666;6.428;2023-03-01T09:34:05;0.30;;;0.30;;
52166;SDS011;38149;52.666;6.428;2023-03-01T09:36:32;0.30;;;0.30;;
52166;SDS011;38149;52.666;6.428;2023-03-01T09:38:58;0.30;;;0.30;;
52166;SDS011;38149;52.666;6.428;2023-03-01T09:41:32;0.40;;;0.40;;
52166;SDS011;38149;52.666;6.428;2023-03-01T09:46:46;0.30;;;0.30;;
52166;SDS011;38149;52.666;6.428;2023-03-01T09:49:14;0.30;;;0.30;;
52166;SDS011;38149;52.666;6.428;2023-03-01T09:51:53;0.30;;;0.30;;
52166;SDS011;38149;52.666;6.428;2023-03-01T09:54:23;0.30;;;0.30;;
52166;SDS011;38149;52.666;6.428;2023-03-01T09:56:55;0.30;;;0.30;;
52166;SDS011;38149;52.666;6.428;2023-03-01T09:59:28;0.30;;;0.30;;
52166;SDS011;38149;52.666;6.428;2023-03-01T10:05:05;0.30;;;0.30;;
52166;SDS011;38149;52.666;6.428;2023-03-01T10:07:42;0.30;;;0.30;;
52166;SDS011;38149;52.666;6.428;2023-03-01T10:10:27;0.30;;;0.30;;
52166;SDS011;38149;52.666;6.428;2023-03-01T10:13:08;0.30;;;0.30;;
52166;SDS011;38149;52.666;6.428;2023-03-01T10:15:56;0.30;;;0.30;;
52166;SDS011;38149;52.666;6.428;2023-03-01T10:18:39;0.30;;;0.30;;
52166;SDS011;38149;52.666;6.428;2023-03-01T10:21:12;0.30;;;0.30;;
52166;SDS011;38149;52.666;6.428;2023-03-01T10:23:41;0.28;;;0.28;;
52166;SDS011;38149;52.666;6.428;2023-03-01T10:28:59;0.30;;;0.30;;
52166;SDS011;38149;52.666;6.428;2023-03-01T10:31:40;0.30;;;0.30;;
52166;SDS011;38149;52.666;6.428;2023-03-01T10:34:22;0.30;;;0.30;;
52166;SDS011;38149;52.666;6.428;2023-03-01T10:36:55;0.30;;;0.30;;
52166;SDS011;38149;52.666;6.428;2023-03-01T10:39:26;0.30;;;0.30;;
52166;SDS011;38149;52.666;6.428;2023-03-01T10:41:54;0.30;;;0.30;;
52166;SDS011;38149;52.666;6.428;2023-03-01T10:44:44;0.30;;;0.30;;
52166;SDS011;38149;52.666;6.428;2023-03-01T10:47:13;0.30;;;0.30;;
52166;SDS011;38149;52.666;6.428;2023-03-01T10:49:51;0.30;;;0.30;;
52166;SDS011;38149;52.666;6.428;2023-03-01T10:52:20;0.30;;;0.30;;
52166;SDS011;38149;52.666;6.428;2023-03-01T10:54:51;0.30;;;0.30;;
52166;SDS011;38149;52.666;6.428;2023-03-01T11:00:24;0.30;;;0.30;;
52166;SDS011;38149;52.666;6.428;2023-03-01T11:02:51;0.30;;;0.30;;
52166;SDS011;38149;52.666;6.428;2023-03-01T11:05:23;0.30;;;0.30;;
52166;SDS011;38149;52.666;6.428;2023-03-01T11:07:51;0.30;;;0.30;;
52166;SDS011;38149;52.666;6.428;2023-03-01T11:10:30;0.30;;;0.30;;
52166;SDS011;38149;52.666;6.428;2023-03-01T11:13:08;0.30;;;0.30;;
52166;SDS011;38149;52.666;6.428;2023-03-01T11:15:43;0.30;;;0.30;;
52166;SDS011;38149;52.666;6.428;2023-03-01T11:18:24;0.30;;;0.30;;
52166;SDS011;38149;52.666;6.428;2023-03-01T11:20:51;0.30;;;0.30;;
52166;SDS011;38149;52.666;6.428;2023-03-01T11:23:19;0.30;;;0.30;;
52166;SDS011;38149;52.666;6.428;2023-03-01T11:25:47;0.20;;;0.20;;
52166;SDS011;38149;52.666;6.428;2023-03-01T11:28:25;0.30;;;0.30;;
52166;SDS011;38149;52.666;6.428;2023-03-01T11:30:55;0.30;;;0.30;;
52166;SDS011;38149;52.666;6.428;2023-03-01T11:38:47;0.30;;;0.30;;
52166;SDS011;38149;52.666;6.428;2023-03-01T11:41:20;0.30;;;0.30;;
52166;SDS011;38149;52.666;6.428;2023-03-01T11:43:59;0.30;;;0.30;;
52166;SDS011;38149;52.666;6.428;2023-03-01T12:06:19;0.22;;;0.22;;
52166;SDS011;38149;52.666;6.428;2023-03-01T12:09:02;0.20;;;0.20;;
52166;SDS011;38149;52.666;6.428;2023-03-01T12:20:06;0.30;;;0.30;;
52166;SDS011;38149;52.666;6.428;2023-03-01T12:28:35;0.20;;;0.20;;
52166;SDS011;38149;52.666;6.428;2023-03-01T12:34:11;0.30;;;0.30;;
52166;SDS011;38149;52.666;6.428;2023-03-01T12:37:11;0.20;;;0.20;;
52166;SDS011;38149;52.666;6.428;2023-03-01T12:39:45;0.20;;;0.20;;
52166;SDS011;38149;52.666;6.428;2023-03-01T12:42:42;0.20;;;0.20;;
52166;SDS011;38149;52.666;6.428;2023-03-01T12:50:41;0.20;;;0.20;;
52166;SDS011;38149;52.666;6.428;2023-03-01T12:55:53;0.20;;;0.20;;
52166;SDS011;38149;52.666;6.428;2023-03-01T13:01:08;0.20;;;0.20;;
52166;SDS011;38149;52.666;6.428;2023-03-01T13:09:30;0.20;;;0.20;;
52166;SDS011;38149;52.666;6.428;2023-03-01T13:12:03;0.20;;;0.20;;
52166;SDS011;38149;52.666;6.428;2023-03-01T13:17:01;0.20;;;0.20;;
52166;SDS011;38149;52.666;6.428;2023-03-01T13:19:28;0.20;;;0.20;;
52166;SDS011;38149;52.666;6.428;2023-03-01T13:21:55;0.30;;;0.30;;
52166;SDS011;38149;52.666;6.428;2023-03-01T13:27:24;0.25;;;0.25;;
52166;SDS011;38149;52.666;6.428;2023-03-01T13:29:47;0.30;;;0.30;;
52166;SDS011;38149;52.666;6.428;2023-03-01T13:32:21;0.20;;;0.20;;
52166;SDS011;38149;52.666;6.428;2023-03-01T13:37:42;0.20;;;0.20;;
52166;SDS011;38149;52.666;6.428;2023-03-01T13:42:45;0.20;;;0.20;;
52166;SDS011;38149;52.666;6.428;2023-03-01T13:47:46;0.20;;;0.20;;
52166;SDS011;38149;52.666;6.428;2023-03-01T13:50:20;0.20;;;0.20;;
52166;SDS011;38149;52.666;6.428;2023-03-01T13:52:49;0.20;;;0.20;;
52166;SDS011;38149;52.666;6.428;2023-03-01T13:55:20;0.20;;;0.20;;
52166;SDS011;38149;52.666;6.428;2023-03-01T13:58:18;0.20;;;0.20;;
52166;SDS011;38149;52.666;6.428;2023-03-01T14:03:29;0.20;;;0.20;;
52166;SDS011;38149;52.666;6.428;2023-03-01T14:08:24;0.20;;;0.20;;
52166;SDS011;38149;52.666;6.428;2023-03-01T14:16:53;0.20;;;0.20;;
52166;SDS011;38149;52.666;6.428;2023-03-01T14:19:25;0.20;;;0.20;;
52166;SDS011;38149;52.666;6.428;2023-03-01T14:21:59;0.20;;;0.20;;
52166;SDS011;38149;52.666;6.428;2023-03-01T14:24:49;0.20;;;0.20;;
52166;SDS011;38149;52.666;6.428;2023-03-01T14:27:17;0.20;;;0.20;;
52166;SDS011;38149;52.666;6.428;2023-03-01T14:29:44;0.20;;;0.20;;
52166;SDS011;38149;52.666;6.428;2023-03-01T14:32:24;0.20;;;0.20;;
52166;SDS011;38149;52.666;6.428;2023-03-01T14:34:52;0.20;;;0.20;;
52166;SDS011;38149;52.666;6.428;2023-03-01T14:37:25;0.20;;;0.20;;
52166;SDS011;38149;52.666;6.428;2023-03-01T14:39:53;0.20;;;0.20;;
52166;SDS011;38149;52.666;6.428;2023-03-01T14:42:21;0.20;;;0.20;;
52166;SDS011;38149;52.666;6.428;2023-03-01T14:44:52;0.10;;;0.10;;
52166;SDS011;38149;52.666;6.428;2023-03-01T14:47:22;0.20;;;0.20;;
52166;SDS011;38149;52.666;6.428;2023-03-01T14:49:54;0.20;;;0.20;;
52166;SDS011;38149;52.666;6.428;2023-03-01T14:52:45;0.20;;;0.20;;
52166;SDS011;38149;52.666;6.428;2023-03-01T14:55:24;0.20;;;0.20;;
52166;SDS011;38149;52.666;6.428;2023-03-01T14:57:52;0.20;;;0.20;;
52166;SDS011;38149;52.666;6.428;2023-03-01T15:00:23;0.20;;;0.20;;
52166;SDS011;38149;52.666;6.428;2023-03-01T15:02:54;0.20;;;0.20;;
52166;SDS011;38149;52.666;6.428;2023-03-01T15:05:24;0.20;;;0.20;;
52166;SDS011;38149;52.666;6.428;2023-03-01T15:07:57;0.10;;;0.10;;
52166;SDS011;38149;52.666;6.428;2023-03-01T15:10:25;0.20;;;0.20;;
52166;SDS011;38149;52.666;6.428;2023-03-01T15:13:09;0.20;;;0.20;;
52166;SDS011;38149;52.666;6.428;2023-03-01T15:16:12;0.20;;;0.20;;
52166;SDS011;38149;52.666;6.428;2023-03-01T15:18:50;0.20;;;0.20;;
52166;SDS011;38149;52.666;6.428;2023-03-01T15:21:22;0.10;;;0.10;;
52166;SDS011;38149;52.666;6.428;2023-03-01T15:23:54;0.10;;;0.10;;
52166;SDS011;38149;52.666;6.428;2023-03-01T15:26:51;0.20;;;0.20;;
52166;SDS011;38149;52.666;6.428;2023-03-01T15:29:29;0.20;;;0.20;;
52166;SDS011;38149;52.666;6.428;2023-03-01T15:32:02;0.10;;;0.10;;
52166;SDS011;38149;52.666;6.428;2023-03-01T15:34:34;0.10;;;0.10;;
52166;SDS011;38149;52.666;6.428;2023-03-01T15:37:02;0.10;;;0.10;;
52166;SDS011;38149;52.666;6.428;2023-03-01T15:42:47;0.20;;;0.20;;
52166;SDS011;38149;52.666;6.428;2023-03-01T15:45:07;0.20;;;0.20;;
52166;SDS011;38149;52.666;6.428;2023-03-01T15:47:52;0.20;;;0.20;;
52166;SDS011;38149;52.666;6.428;2023-03-01T15:52:50;0.20;;;0.20;;
52166;SDS011;38149;52.666;6.428;2023-03-01T15:57:46;0.20;;;0.20;;
52166;SDS011;38149;52.666;6.428;2023-03-01T16:00:12;0.20;;;0.20;;
52166;SDS011;38149;52.666;6.428;2023-03-01T16:02:40;0.20;;;0.20;;
52166;SDS011;38149;52.666;6.428;2023-03-01T16:05:29;0.20;;;0.20;;
52166;SDS011;38149;52.666;6.428;2023-03-01T16:07:57;0.10;;;0.10;;
52166;SDS011;38149;52.666;6.428;2023-03-01T16:10:23;0.10;;;0.10;;
52166;SDS011;38149;52.666;6.428;2023-03-01T16:12:50;0.10;;;0.10;;
52166;SDS011;38149;52.666;6.428;2023-03-01T16:15:21;0.10;;;0.10;;
52166;SDS011;38149;52.666;6.428;2023-03-01T16:17:52;0.20;;;0.20;;
52166;SDS011;38149;52.666;6.428;2023-03-01T16:20:19;0.20;;;0.20;;
52166;SDS011;38149;52.666;6.428;2023-03-01T16:22:46;0.20;;;0.20;;
52166;SDS011;38149;52.666;6.428;2023-03-01T16:25:16;0.20;;;0.20;;
52166;SDS011;38149;52.666;6.428;2023-03-01T16:27:44;0.20;;;0.20;;
52166;SDS011;38149;52.666;6.428;2023-03-01T16:30:12;0.20;;;0.20;;
52166;SDS011;38149;52.666;6.428;2023-03-01T16:32:40;0.20;;;0.20;;
52166;SDS011;38149;52.666;6.428;2023-03-01T16:35:07;0.10;;;0.10;;
52166;SDS011;38149;52.666;6.428;2023-03-01T16:37:35;0.10;;;0.10;;
52166;SDS011;38149;52.666;6.428;2023-03-01T16:40:02;0.20;;;0.20;;
52166;SDS011;38149;52.666;6.428;2023-03-01T16:42:33;0.10;;;0.10;;
52166;SDS011;38149;52.666;6.428;2023-03-01T16:44:59;0.10;;;0.10;;
52166;SDS011;38149;52.666;6.428;2023-03-01T16:47:26;0.20;;;0.20;;
52166;SDS011;38149;52.666;6.428;2023-03-01T16:49:53;0.10;;;0.10;;
52166;SDS011;38149;52.666;6.428;2023-03-01T16:52:20;0.20;;;0.20;;
52166;SDS011;38149;52.666;6.428;2023-03-01T16:54:47;0.20;;;0.20;;
52166;SDS011;38149;52.666;6.428;2023-03-01T16:57:13;0.20;;;0.20;;
52166;SDS011;38149;52.666;6.428;2023-03-01T16:59:40;0.20;;;0.20;;
52166;SDS011;38149;52.666;6.428;2023-03-01T17:02:08;0.20;;;0.20;;
52166;SDS011;38149;52.666;6.428;2023-03-01T17:04:37;0.10;;;0.10;;
52166;SDS011;38149;52.666;6.428;2023-03-01T17:07:04;0.20;;;0.20;;